Aérodrome :
LOGIN :

S'inscrire | Disclaimer

   EN    FR    IT 

 










Légende :    VFR   VFR Marginal   IFR   IFR Intensif   IFR Très Intensif
Visi : 
Plafond : 
>= 8 km
>= 3000ft
5 à 8 km
1000 à 3000 ft
1500m à 5 km
500 à 1000 ft
800 à 1500m
200 à 500 ft
< 800m
< 200 ft
Symboles :   Orages  Brouillard  Fortes neiges  Fortes précipitations  Vent > 20 kt
SIGMETs :   Divers  Orages  Givrage  Turbulence  Onde Orograph.  Cendres Volcan.







- Altitude de l'aérodrome : 13 ft
- Code IATA : CAG


LIEE - Cagliari Elmas

DERNIER METAR :
  • 260550Z 35009KT 9999 -RA FEW060 15/12 Q1018

METARs EXPIRÉS :
  • 260520Z 35008KT CAVOK 15/12 Q1018
  • 260450Z 34006KT CAVOK 14/13 Q1018
  • 260420Z 32007KT CAVOK 14/13 Q1017
  • 260350Z 33007KT CAVOK 14/13 Q1017
  • 260320Z 33009KT CAVOK 13/13 Q1017

TAF TAF LIEE
Valide du 26 à 06h jusqu'au 27 à 06h UTC


260500Z 2606/2706 34010KT 9999 SCT040
TEMPO 2606/2610 RA
Pas de NOTAMs connus pour ce terrain.



MET'MAP, la Météo Aéronautique d'un coup d'oeil ! - Copyright ORBIFLY Décembre 2007 - Disclaimer

ORBIFLY MET'MAP TEAM :

Programmation & Développement : Alexandra Zaïnal
Conception & Développement : Baudouin d'Aumeries
Co-Programmation & Développement : Marc-Olivier Méhu
Soutien technique & logistique : Manuel Goepfert

Contact : metmap@orbifly.com




SOURCES & CREDITS :

   NOAA